Overview Statistics Trail Chart Weather Telemetry Raw packets
 

This is the latest recevied weather packets stored in our database for station/object KB9OQF-5. If no packets are shown the sender has not sent any weather packets the latest 10 day(s).

<< 2 3 4 5 6 7 8 >>
Time Temp. Humidity Pressure Rain* Wind** Luminosity Snow
1788315835 27.22° C 78% 986 hPa 0 mm - - -
1788315134 27.22° C 76% 986 hPa 0 mm - - -
1788311985 28.33° C 75% 986 hPa 0 mm - - -
1788310935 28.89° C 72% 986 hPa 0 mm - - -
1788304285 34.44° C 54% 986 hPa 0 mm - - -
1788303935 34.44° C 54% 986 hPa 0 mm - - -
1788303585 34.44° C 55% 986 hPa 0 mm - - -
1788302535 35° C 49% 986 hPa 0 mm - - -
1788302185 35° C 51% 986 hPa 0 mm - - -
1788299035 34.44° C 50% 986 hPa 0 mm - - -
1788297635 35° C 52% 986 hPa 0 mm - - -
1788293435 32.78° C 59% 986 hPa 0 mm - - -
1788290985 32.22° C 61% 986 hPa 0 mm - - -
1788286435 30.56° C 64% 987 hPa 0 mm - - -
1788266060 24.44° C 81% 987 hPa 0 mm - - -
1788265819 24.44° C 81% 987 hPa 0 mm - - -
1788265785 24.44° C 81% 987 hPa 0 mm - - -
1788265437 24.44° C 82% 987 hPa 0 mm - - -
1788255636 23.89° C 81% 987 hPa 0 mm - - -
1788254234 23.89° C 81% 986 hPa 0 mm - - -
1788253884 23.89° C 80% 986 hPa 0 mm - - -
1788253302 23.89° C 80% 986 hPa 0 mm - - -
1788253217 23.89° C 80% 986 hPa 0 mm - - -
1788253185 23.89° C 80% 986 hPa 0 mm - - -
1788238135 25° C 80% 986 hPa 0 mm - - -

* Rain latest hour (hover to see other rain measurements)
** Current wind speed in m/s (hover to see current wind gust speed)